Time;durP1;ratioP1;P1;durP2;ratioP2;P2;SDS_P1;SDS_P2;PMS_P1;PMS_P2;Temp;Humidity;BMP_temperature;BMP_pressure;BME280_temperature;BME280_humidity;BME280_pressure;Samples;Min_cycle;Max_cycle;Signal;HPM_P1;HPM_P2
2022/04/25 00:00:52;;;;;;;7.93;5.63;;;;;;;;;;5012472;28;20127;-71
2022/04/25 00:03:17;;;;;;;13.13;5.88;;;;;;;;;;5012800;28;20033;-71
2022/04/25 00:05:42;;;;;;;8.00;6.20;;;;;;;;;;5011920;28;20048;-71
2022/04/25 00:08:07;;;;;;;9.17;5.93;;;;;;;;;;5020131;28;20269;-71
2022/04/25 00:10:33;;;;;;;9.37;6.37;;;;;;;;;;5007671;28;20288;-70
2022/04/25 00:12:58;;;;;;;8.60;5.90;;;;;;;;;;5008182;28;20269;-70
2022/04/25 00:15:25;;;;;;;17.17;7.40;;;;;;;;;;5011796;28;20030;-70
2022/04/25 00:17:50;;;;;;;12.02;5.93;;;;;;;;;;5012697;28;20280;-68
2022/04/25 00:20:15;;;;;;;10.07;6.63;;;;;;;;;;5017140;28;20025;-69
2022/04/25 00:22:40;;;;;;;11.10;7.10;;;;;;;;;;5011660;28;20820;-69
2022/04/25 00:25:06;;;;;;;14.30;8.88;;;;;;;;;;5009715;28;20490;-70
2022/04/25 00:27:31;;;;;;;14.75;8.60;;;;;;;;;;5001057;28;20033;-69
2022/04/25 00:29:56;;;;;;;12.60;8.40;;;;;;;;;;5016308;28;20402;-69
2022/04/25 00:32:22;;;;;;;17.27;10.35;;;;;;;;;;5014028;28;20367;-69
2022/04/25 00:34:47;;;;;;;20.33;12.07;;;;;;;;;;5009278;28;20375;-68
2022/04/25 00:37:12;;;;;;;15.80;9.27;;;;;;;;;;5015232;28;20056;-67
2022/04/25 00:39:37;;;;;;;13.30;8.73;;;;;;;;;;5010921;28;20319;-68
2022/04/25 00:42:03;;;;;;;20.42;8.32;;;;;;;;;;5012583;28;20347;-67
2022/04/25 00:44:28;;;;;;;12.57;8.32;;;;;;;;;;5009130;28;20080;-67
2022/04/25 00:46:55;;;;;;;18.35;9.45;;;;;;;;;;5008137;28;20052;-67
2022/04/25 00:49:20;;;;;;;22.00;9.93;;;;;;;;;;5006757;28;20014;-67
2022/04/25 00:51:47;;;;;;;15.10;8.38;;;;;;;;;;5013572;28;20018;-67
2022/04/25 00:54:12;;;;;;;14.60;8.43;;;;;;;;;;5014092;28;20018;-67
2022/04/25 00:56:38;;;;;;;15.50;9.35;;;;;;;;;;5013245;28;20112;-67
2022/04/25 00:59:03;;;;;;;19.27;8.52;;;;;;;;;;5012080;28;20462;-67
2022/04/25 01:01:29;;;;;;;15.88;8.65;;;;;;;;;;5013017;28;20026;-68
2022/04/25 01:03:54;;;;;;;13.70;7.63;;;;;;;;;;5008711;28;20022;-68
2022/04/25 01:06:19;;;;;;;18.40;7.10;;;;;;;;;;5014104;28;20371;-68
2022/04/25 01:08:45;;;;;;;13.73;7.47;;;;;;;;;;5013971;28;20022;-68
2022/04/25 01:11:12;;;;;;;16.58;7.57;;;;;;;;;;5011293;28;20360;-68
2022/04/25 01:13:37;;;;;;;17.23;6.80;;;;;;;;;;5015094;28;20014;-67
2022/04/25 01:16:03;;;;;;;14.48;6.95;;;;;;;;;;5008326;28;20100;-67
2022/04/25 01:18:28;;;;;;;13.25;7.47;;;;;;;;;;5014545;28;20025;-67
2022/04/25 01:20:55;;;;;;;11.67;7.37;;;;;;;;;;5010251;28;20022;-67
2022/04/25 01:28:49;;;;;;;23.90;8.52;;;;;;;;;;5012854;28;20028;-67
2022/04/25 01:31:14;;;;;;;14.25;8.27;;;;;;;;;;5010933;28;20025;-67
2022/04/25 01:33:39;;;;;;;9.10;6.00;;;;;;;;;;5012765;28;20026;-67
2022/04/25 01:36:05;;;;;;;17.50;8.97;;;;;;;;;;5014331;28;20273;-67
2022/04/25 01:38:30;;;;;;;18.35;9.98;;;;;;;;;;5011685;28;20808;-67
2022/04/25 01:40:57;;;;;;;15.02;8.63;;;;;;;;;;5008611;28;20021;-67
2022/04/25 01:43:22;;;;;;;13.57;9.40;;;;;;;;;;5009530;28;20253;-67
2022/04/25 01:45:47;;;;;;;19.67;10.00;;;;;;;;;;5011819;28;20367;-67
2022/04/25 01:48:12;;;;;;;17.50;8.90;;;;;;;;;;5015416;28;20026;-67
2022/04/25 01:50:37;;;;;;;16.40;7.70;;;;;;;;;;5010179;28;20026;-67
2022/04/25 01:53:03;;;;;;;12.93;7.87;;;;;;;;;;5007899;28;20046;-67
2022/04/25 01:55:28;;;;;;;11.93;6.97;;;;;;;;;;5018932;28;20291;-67
2022/04/25 01:57:53;;;;;;;14.90;8.52;;;;;;;;;;5012409;28;20026;-67
2022/04/25 02:00:18;;;;;;;13.20;5.67;;;;;;;;;;5017650;28;20466;-67
2022/04/25 02:02:44;;;;;;;17.15;9.13;;;;;;;;;;5006835;28;20271;-67
2022/04/25 02:05:09;;;;;;;16.40;8.98;;;;;;;;;;4990854;28;20026;-67
2022/04/25 02:07:34;;;;;;;12.15;7.07;;;;;;;;;;5011482;28;20616;-67
2022/04/25 02:09:59;;;;;;;16.60;6.60;;;;;;;;;;5013122;28;20101;-67
2022/04/25 02:12:25;;;;;;;14.07;9.18;;;;;;;;;;5013377;28;20418;-67
2022/04/25 02:14:50;;;;;;;16.63;9.15;;;;;;;;;;5006282;28;20021;-67
2022/04/25 02:17:15;;;;;;;17.90;9.00;;;;;;;;;;5012181;28;20441;-67
2022/04/25 02:19:43;;;;;;;13.60;8.10;;;;;;;;;;5013265;28;20033;-67
2022/04/25 02:22:10;;;;;;;16.30;9.05;;;;;;;;;;5007519;28;20343;-67
2022/04/25 02:24:35;;;;;;;9.77;6.70;;;;;;;;;;5013764;28;20018;-67
2022/04/25 02:27:03;;;;;;;11.48;5.68;;;;;;;;;;5009655;28;20113;-67
2022/04/25 02:29:28;;;;;;;12.35;5.82;;;;;;;;;;5013921;28;20013;-67
2022/04/25 02:31:53;;;;;;;7.25;5.13;;;;;;;;;;5005685;28;20030;-67
2022/04/25 02:34:19;;;;;;;8.20;4.93;;;;;;;;;;5010229;28;20035;-67
2022/04/25 02:36:45;;;;;;;9.63;5.13;;;;;;;;;;5013276;28;20110;-67
2022/04/25 02:39:10;;;;;;;11.70;5.53;;;;;;;;;;5013436;28;20033;-67
2022/04/25 02:41:35;;;;;;;8.57;5.13;;;;;;;;;;5012988;28;20131;-67
2022/04/25 02:44:00;;;;;;;10.52;5.05;;;;;;;;;;5010240;28;20390;-67
2022/04/25 02:46:25;;;;;;;9.25;5.82;;;;;;;;;;5014112;28;20025;-68
2022/04/25 02:48:51;;;;;;;13.98;6.07;;;;;;;;;;5009856;28;20053;-67
2022/04/25 02:51:16;;;;;;;10.27;5.57;;;;;;;;;;5010958;28;20014;-67
2022/04/25 02:53:42;;;;;;;8.80;5.78;;;;;;;;;;5015200;28;20489;-67
2022/04/25 02:56:08;;;;;;;10.18;5.40;;;;;;;;;;5006980;28;20057;-67
2022/04/25 02:58:34;;;;;;;8.15;5.38;;;;;;;;;;5011618;28;20052;-67
2022/04/25 03:00:59;;;;;;;8.90;4.85;;;;;;;;;;5018504;28;20014;-67
2022/04/25 03:03:25;;;;;;;9.32;5.43;;;;;;;;;;5012858;28;20026;-67
2022/04/25 03:05:51;;;;;;;12.32;5.30;;;;;;;;;;5020452;28;20099;-67
2022/04/25 03:08:18;;;;;;;7.00;4.88;;;;;;;;;;5015194;28;20041;-67
2022/04/25 03:10:44;;;;;;;9.95;5.32;;;;;;;;;;5010360;28;20024;-67
2022/04/25 03:13:09;;;;;;;9.85;5.57;;;;;;;;;;5010654;28;20025;-68
2022/04/25 03:15:38;;;;;;;7.78;5.20;;;;;;;;;;5012926;28;20096;-68
2022/04/25 03:18:03;;;;;;;9.98;5.57;;;;;;;;;;5018971;28;20026;-68
2022/04/25 03:20:29;;;;;;;9.80;5.47;;;;;;;;;;5009045;28;20036;-67
2022/04/25 03:22:57;;;;;;;8.55;5.35;;;;;;;;;;5010019;28;20044;-68
2022/04/25 03:25:22;;;;;;;12.15;5.70;;;;;;;;;;5013934;28;20032;-68
2022/04/25 03:27:48;;;;;;;9.13;5.57;;;;;;;;;;5015582;28;20390;-67
2022/04/25 03:30:13;;;;;;;9.32;5.35;;;;;;;;;;5008813;28;20033;-68
2022/04/25 03:32:42;;;;;;;9.32;6.28;;;;;;;;;;5022893;28;20049;-68
2022/04/25 03:35:07;;;;;;;8.88;5.40;;;;;;;;;;5021656;28;20053;-68
2022/04/25 03:37:35;;;;;;;11.40;5.53;;;;;;;;;;5020235;28;20072;-68
2022/04/25 03:40:00;;;;;;;13.40;5.78;;;;;;;;;;5010068;28;20024;-68
2022/04/25 03:42:26;;;;;;;11.33;5.17;;;;;;;;;;5009944;28;20030;-68
2022/04/25 03:44:51;;;;;;;9.45;4.78;;;;;;;;;;5015027;28;20283;-68
2022/04/25 03:47:16;;;;;;;13.23;5.72;;;;;;;;;;5017052;28;20021;-68
2022/04/25 03:49:41;;;;;;;5.55;3.42;;;;;;;;;;5015624;28;20068;-67
2022/04/25 03:52:07;;;;;;;7.93;4.50;;;;;;;;;;5008791;28;20025;-68
2022/04/25 03:57:16;;;;;;;8.00;4.80;;;;;;;;;;5013482;28;20049;-67
2022/04/25 03:59:41;;;;;;;12.90;5.67;;;;;;;;;;5010174;28;20462;-67
2022/04/25 04:02:07;;;;;;;11.80;5.80;;;;;;;;;;5012865;28;20270;-68
2022/04/25 04:04:32;;;;;;;12.95;5.63;;;;;;;;;;5011031;28;20018;-68
2022/04/25 04:06:58;;;;;;;10.68;6.00;;;;;;;;;;5010683;28;20022;-67
2022/04/25 04:12:06;;;;;;;8.73;5.60;;;;;;;;;;5018587;28;20033;-68
2022/04/25 04:14:32;;;;;;;8.32;5.30;;;;;;;;;;4993819;28;20022;-67
2022/04/25 04:16:58;;;;;;;8.53;5.60;;;;;;;;;;5012814;28;20025;-68
2022/04/25 04:19:23;;;;;;;11.63;6.22;;;;;;;;;;5012749;28;20303;-68
2022/04/25 04:21:49;;;;;;;9.13;5.60;;;;;;;;;;5013683;28;20067;-68
2022/04/25 04:24:14;;;;;;;11.38;6.72;;;;;;;;;;5015597;28;20294;-67
2022/04/25 04:26:39;;;;;;;11.88;6.25;;;;;;;;;;5015211;28;20549;-68
2022/04/25 04:29:04;;;;;;;12.30;7.10;;;;;;;;;;5015206;28;20036;-68
2022/04/25 04:31:30;;;;;;;10.80;6.50;;;;;;;;;;5007601;28;20029;-67
2022/04/25 04:33:55;;;;;;;15.73;7.47;;;;;;;;;;5019376;28;20029;-68
2022/04/25 04:36:22;;;;;;;16.73;7.57;;;;;;;;;;5009704;28;20018;-68
2022/04/25 04:38:47;;;;;;;13.05;7.72;;;;;;;;;;5013125;28;20648;-68
2022/04/25 04:41:12;;;;;;;14.05;8.32;;;;;;;;;;5009952;28;20030;-67
2022/04/25 04:43:38;;;;;;;14.07;7.75;;;;;;;;;;5014050;28;20025;-68
2022/04/25 04:46:03;;;;;;;14.40;8.15;;;;;;;;;;5021019;28;20022;-68
2022/04/25 04:48:28;;;;;;;13.98;8.23;;;;;;;;;;5013838;28;20022;-68
2022/04/25 04:50:55;;;;;;;12.60;7.23;;;;;;;;;;5007085;28;20018;-68
2022/04/25 04:53:21;;;;;;;16.48;7.93;;;;;;;;;;5014950;28;20323;-68
2022/04/25 04:55:46;;;;;;;13.57;6.75;;;;;;;;;;5011933;28;20045;-68
2022/04/25 04:58:11;;;;;;;11.60;5.72;;;;;;;;;;5009910;28;20528;-68
2022/04/25 05:00:36;;;;;;;11.60;7.13;;;;;;;;;;5009734;28;20026;-68
2022/04/25 05:03:02;;;;;;;11.75;7.40;;;;;;;;;;5013907;28;20267;-68
2022/04/25 05:05:27;;;;;;;14.73;7.93;;;;;;;;;;5014589;28;20049;-67
2022/04/25 05:07:53;;;;;;;16.23;8.52;;;;;;;;;;5006005;28;20029;-68
2022/04/25 05:10:18;;;;;;;12.52;6.93;;;;;;;;;;5008562;28;20486;-68
2022/04/25 05:12:44;;;;;;;13.30;8.60;;;;;;;;;;5013577;28;20022;-68
2022/04/25 05:15:10;;;;;;;15.43;9.23;;;;;;;;;;5017829;28;20466;-68
2022/04/25 05:17:35;;;;;;;16.35;8.73;;;;;;;;;;5008250;28;20084;-67
2022/04/25 05:20:00;;;;;;;15.57;9.17;;;;;;;;;;5009880;28;20037;-68
2022/04/25 05:22:26;;;;;;;16.63;8.90;;;;;;;;;;5016655;28;20304;-67
2022/04/25 05:24:51;;;;;;;15.87;8.30;;;;;;;;;;5012045;28;20025;-68
2022/04/25 05:27:16;;;;;;;14.88;8.45;;;;;;;;;;5011595;28;20312;-67
2022/04/25 05:29:41;;;;;;;17.88;7.80;;;;;;;;;;5008421;28;20498;-68
2022/04/25 05:32:07;;;;;;;11.93;7.40;;;;;;;;;;5016527;28;20021;-67
2022/04/25 05:34:32;;;;;;;14.82;8.45;;;;;;;;;;5007793;28;20637;-68
2022/04/25 05:36:57;;;;;;;13.97;8.43;;;;;;;;;;5012688;28;20068;-67
2022/04/25 05:39:22;;;;;;;14.35;8.00;;;;;;;;;;4989719;28;20273;-68
2022/04/25 05:41:48;;;;;;;11.77;7.38;;;;;;;;;;5011309;28;20479;-68
2022/04/25 05:44:13;;;;;;;16.80;9.75;;;;;;;;;;5016944;28;20109;-67
2022/04/25 05:46:38;;;;;;;15.48;9.18;;;;;;;;;;5010351;28;20060;-67
2022/04/25 05:52:00;;;;;;;16.88;8.80;;;;;;;;;;5010589;28;20064;-67
2022/04/25 05:54:26;;;;;;;12.98;7.93;;;;;;;;;;5006571;28;20052;-68
2022/04/25 05:56:52;;;;;;;17.55;8.65;;;;;;;;;;5005498;28;20057;-68
2022/04/25 05:59:17;;;;;;;16.08;8.60;;;;;;;;;;5008734;28;20112;-67
2022/04/25 06:01:43;;;;;;;18.02;9.95;;;;;;;;;;5007173;28;20058;-68
2022/04/25 06:04:08;;;;;;;14.87;8.87;;;;;;;;;;5004461;28;20045;-68
2022/04/25 06:06:33;;;;;;;14.70;8.77;;;;;;;;;;5007708;28;20923;-68
2022/04/25 06:08:58;;;;;;;17.50;8.10;;;;;;;;;;5020577;28;20018;-68
2022/04/25 06:11:23;;;;;;;13.70;8.50;;;;;;;;;;5010155;28;20272;-68
2022/04/25 06:13:50;;;;;;;15.48;8.80;;;;;;;;;;5007259;28;20448;-67
2022/04/25 06:16:15;;;;;;;13.40;8.02;;;;;;;;;;5006172;28;20034;-67
2022/04/25 06:18:40;;;;;;;11.27;7.10;;;;;;;;;;5011840;28;20044;-68
2022/04/25 06:21:06;;;;;;;13.47;6.90;;;;;;;;;;5012336;28;20490;-67
2022/04/25 06:23:31;;;;;;;12.20;7.20;;;;;;;;;;5012709;28;20264;-68
2022/04/25 06:25:57;;;;;;;12.23;7.22;;;;;;;;;;5010399;28;20026;-68
2022/04/25 06:28:24;;;;;;;9.48;6.00;;;;;;;;;;5012317;28;20478;-68
2022/04/25 06:30:50;;;;;;;8.32;6.10;;;;;;;;;;5020709;28;20014;-68
2022/04/25 06:33:15;;;;;;;8.55;6.20;;;;;;;;;;5015474;28;20501;-69
2022/04/25 06:35:40;;;;;;;10.03;6.27;;;;;;;;;;5010053;28;20029;-69
2022/04/25 06:38:05;;;;;;;9.88;5.20;;;;;;;;;;5012941;28;20661;-68
2022/04/25 06:40:30;;;;;;;9.13;5.57;;;;;;;;;;5014252;28;20037;-69
2022/04/25 06:42:56;;;;;;;9.40;5.90;;;;;;;;;;4994369;28;20112;-68
2022/04/25 06:45:21;;;;;;;10.07;6.22;;;;;;;;;;5007744;28;20300;-69
2022/04/25 06:47:46;;;;;;;10.85;6.25;;;;;;;;;;5015758;28;20009;-68
2022/04/25 06:50:12;;;;;;;9.57;5.77;;;;;;;;;;5018301;28;20105;-69
2022/04/25 06:52:38;;;;;;;9.05;5.53;;;;;;;;;;5019729;28;20327;-68
2022/04/25 06:55:07;;;;;;;12.63;5.28;;;;;;;;;;5020733;28;20025;-68
2022/04/25 06:57:35;;;;;;;9.10;5.65;;;;;;;;;;5014366;28;20466;-68
2022/04/25 07:00:01;;;;;;;10.77;5.95;;;;;;;;;;5013343;28;20018;-68
2022/04/25 07:02:26;;;;;;;7.60;5.53;;;;;;;;;;5033642;28;20112;-68
2022/04/25 07:04:51;;;;;;;10.60;5.67;;;;;;;;;;5017046;28;20018;-69
2022/04/25 07:07:17;;;;;;;7.17;5.17;;;;;;;;;;5012246;28;20456;-68
2022/04/25 07:09:42;;;;;;;7.10;4.93;;;;;;;;;;5012073;28;20699;-68
2022/04/25 07:12:08;;;;;;;8.60;4.75;;;;;;;;;;5023081;28;20021;-68
2022/04/25 07:14:33;;;;;;;7.22;4.85;;;;;;;;;;5020012;28;20017;-69
2022/04/25 07:17:00;;;;;;;6.85;4.85;;;;;;;;;;5022951;28;20025;-69
2022/04/25 07:19:25;;;;;;;10.90;5.10;;;;;;;;;;5025599;28;20029;-68
2022/04/25 07:30:03;;;;;;;7.90;5.10;;;;;;;;;;5011359;28;20493;-69
2022/04/25 07:32:28;;;;;;;7.22;5.15;;;;;;;;;;5018449;28;20097;-69
2022/04/25 07:34:53;;;;;;;6.63;5.10;;;;;;;;;;5009340;28;20447;-68
2022/04/25 07:37:22;;;;;;;5.60;4.37;;;;;;;;;;4990312;28;20042;-68
2022/04/25 07:39:48;;;;;;;7.47;4.10;;;;;;;;;;5008237;28;20758;-68
2022/04/25 07:42:15;;;;;;;5.63;3.83;;;;;;;;;;5023531;28;20301;-68
2022/04/25 07:44:40;;;;;;;6.68;3.50;;;;;;;;;;5008713;28;20026;-68
2022/04/25 07:47:06;;;;;;;8.43;4.28;;;;;;;;;;5012708;28;20033;-69
2022/04/25 07:49:33;;;;;;;7.13;4.13;;;;;;;;;;5010931;28;20021;-69
2022/04/25 07:51:59;;;;;;;6.80;3.35;;;;;;;;;;5017846;28;20017;-69
2022/04/25 07:54:24;;;;;;;6.75;3.45;;;;;;;;;;5006944;28;20029;-68
2022/04/25 07:56:51;;;;;;;6.43;3.58;;;;;;;;;;5009537;28;20025;-69
2022/04/25 07:59:16;;;;;;;7.68;3.75;;;;;;;;;;5004283;28;20026;-68
2022/04/25 08:01:41;;;;;;;5.13;3.50;;;;;;;;;;5017341;28;20032;-69
2022/04/25 08:04:07;;;;;;;5.35;3.88;;;;;;;;;;5013808;28;20109;-68
2022/04/25 08:06:32;;;;;;;5.53;3.42;;;;;;;;;;5009714;28;20069;-68
2022/04/25 08:08:58;;;;;;;12.73;4.57;;;;;;;;;;5009405;28;20064;-68
2022/04/25 08:11:23;;;;;;;5.85;3.75;;;;;;;;;;5008452;28;20026;-68
2022/04/25 08:19:16;;;;;;;6.20;3.83;;;;;;;;;;5015368;28;20088;-68
2022/04/25 08:21:42;;;;;;;5.03;3.67;;;;;;;;;;5011880;28;20041;-67
2022/04/25 08:24:07;;;;;;;6.68;4.63;;;;;;;;;;5008160;28;20029;-68
2022/04/25 08:26:33;;;;;;;6.82;4.40;;;;;;;;;;5006177;28;20494;-67
2022/04/25 08:28:59;;;;;;;6.43;4.18;;;;;;;;;;5012360;28;20483;-67
2022/04/25 08:31:25;;;;;;;7.00;4.57;;;;;;;;;;5011097;28;20226;-67
2022/04/25 08:33:50;;;;;;;6.00;4.32;;;;;;;;;;5010495;28;20014;-68
2022/04/25 08:36:16;;;;;;;9.75;4.43;;;;;;;;;;5016348;28;20712;-67
2022/04/25 08:38:43;;;;;;;6.13;4.25;;;;;;;;;;5009979;28;20409;-70
2022/04/25 08:41:10;;;;;;;8.75;5.28;;;;;;;;;;5008435;28;20026;-67
2022/04/25 08:43:35;;;;;;;8.82;4.50;;;;;;;;;;5009298;28;20232;-67
2022/04/25 08:46:01;;;;;;;9.82;4.90;;;;;;;;;;5009518;28;20162;-66
2022/04/25 08:48:26;;;;;;;6.82;4.50;;;;;;;;;;5006758;28;20379;-67
2022/04/25 08:50:52;;;;;;;8.35;4.15;;;;;;;;;;5016427;28;20026;-67
2022/04/25 08:53:17;;;;;;;8.20;4.65;;;;;;;;;;5019149;28;20422;-67
2022/04/25 08:55:43;;;;;;;6.82;4.03;;;;;;;;;;5017120;28;20026;-67
2022/04/25 08:58:09;;;;;;;6.28;4.35;;;;;;;;;;5017218;28;20018;-69
2022/04/25 09:00:34;;;;;;;8.45;4.25;;;;;;;;;;5017619;28;20433;-69
2022/04/25 09:02:59;;;;;;;9.10;5.55;;;;;;;;;;5009365;28;20437;-68
2022/04/25 09:05:25;;;;;;;7.93;5.00;;;;;;;;;;5007918;28;20026;-69
2022/04/25 09:07:50;;;;;;;6.82;4.78;;;;;;;;;;5012095;28;20525;-67
2022/04/25 09:10:17;;;;;;;7.38;4.97;;;;;;;;;;5002675;28;20022;-67
2022/04/25 09:12:44;;;;;;;8.02;4.50;;;;;;;;;;5011089;28;21332;-66
2022/04/25 09:15:09;;;;;;;6.28;4.75;;;;;;;;;;5005160;28;20025;-69
2022/04/25 09:17:35;;;;;;;9.88;5.28;;;;;;;;;;5014355;28;20422;-69
2022/04/25 09:20:01;;;;;;;7.70;5.20;;;;;;;;;;5012231;28;20018;-66
2022/04/25 09:22:33;;;;;;;8.80;5.38;;;;;;;;;;5007039;28;20018;-66
2022/04/25 09:25:09;;;;;;;8.93;5.55;;;;;;;;;;5007543;28;20029;-67
2022/04/25 09:27:34;;;;;;;13.68;5.43;;;;;;;;;;5005646;28;20045;-67
2022/04/25 09:30:14;;;;;;;6.90;4.60;;;;;;;;;;5011965;28;20470;-66
2022/04/25 09:32:40;;;;;;;9.55;5.00;;;;;;;;;;5007176;28;20037;-67
2022/04/25 09:35:24;;;;;;;6.65;5.43;;;;;;;;;;5006947;28;22474;-69
2022/04/25 09:37:49;;;;;;;9.00;5.88;;;;;;;;;;5009257;28;20156;-69
2022/04/25 09:40:19;;;;;;;9.18;5.22;;;;;;;;;;5010270;28;20520;-67
2022/04/25 09:42:46;;;;;;;6.85;5.03;;;;;;;;;;5015923;28;20021;-67
2022/04/25 09:45:11;;;;;;;11.18;6.82;;;;;;;;;;4996548;28;20048;-67
2022/04/25 09:47:37;;;;;;;7.78;5.50;;;;;;;;;;5006736;28;20018;-69
2022/04/25 09:50:07;;;;;;;7.55;5.15;;;;;;;;;;5014721;28;20496;-68
2022/04/25 09:52:33;;;;;;;8.23;5.73;;;;;;;;;;5016157;28;20022;-70
2022/04/25 09:55:11;;;;;;;7.65;5.57;;;;;;;;;;5011272;28;20437;-69
2022/04/25 09:57:37;;;;;;;8.55;4.47;;;;;;;;;;5011871;28;20036;-68
2022/04/25 10:00:03;;;;;;;8.13;4.80;;;;;;;;;;5005957;28;20514;-69
2022/04/25 10:02:28;;;;;;;7.88;5.55;;;;;;;;;;5012259;28;20022;-71
2022/04/25 10:04:54;;;;;;;7.72;4.60;;;;;;;;;;5002061;28;20084;-69
2022/04/25 10:07:20;;;;;;;8.60;4.50;;;;;;;;;;5009481;28;20104;-69
2022/04/25 10:09:46;;;;;;;9.23;5.32;;;;;;;;;;5017599;28;20104;-68
2022/04/25 10:12:12;;;;;;;8.18;3.83;;;;;;;;;;5011435;28;20177;-69
2022/04/25 10:14:37;;;;;;;7.57;5.07;;;;;;;;;;5011159;28;20018;-69
2022/04/25 10:17:03;;;;;;;7.28;5.57;;;;;;;;;;5015207;28;20029;-69
2022/04/25 10:19:29;;;;;;;7.63;5.07;;;;;;;;;;5004616;28;20025;-68
2022/04/25 10:21:55;;;;;;;10.85;6.70;;;;;;;;;;5008386;28;20108;-70
2022/04/25 10:24:21;;;;;;;9.13;6.93;;;;;;;;;;5015135;28;20109;-70
2022/04/25 10:26:49;;;;;;;10.52;6.85;;;;;;;;;;5005236;28;20022;-70
2022/04/25 10:29:17;;;;;;;9.70;6.43;;;;;;;;;;5011910;28;20057;-70
2022/04/25 10:31:43;;;;;;;11.32;6.63;;;;;;;;;;5018245;28;20044;-71
2022/04/25 10:34:09;;;;;;;10.77;6.78;;;;;;;;;;5011122;28;20374;-70
2022/04/25 10:36:37;;;;;;;11.02;7.15;;;;;;;;;;5014065;28;20082;-70
2022/04/25 10:39:11;;;;;;;12.30;7.07;;;;;;;;;;5012279;28;20026;-70
2022/04/25 10:44:20;;;;;;;11.05;6.25;;;;;;;;;;5010029;28;20065;-70
2022/04/25 10:47:03;;;;;;;10.83;5.87;;;;;;;;;;5006533;28;20467;-69
2022/04/25 10:49:31;;;;;;;11.13;5.40;;;;;;;;;;5000802;28;20340;-69
2022/04/25 10:51:57;;;;;;;9.02;6.70;;;;;;;;;;5002608;28;20029;-70
2022/04/25 10:54:27;;;;;;;10.43;5.45;;;;;;;;;;5008008;28;20032;-70
2022/04/25 10:57:08;;;;;;;8.00;4.38;;;;;;;;;;5003066;28;20037;-71
2022/04/25 10:59:33;;;;;;;;;;;;;;;;;;4997638;28;20034;-70
2022/04/25 11:01:58;;;;;;;8.77;5.97;;;;;;;;;;4997141;28;19914;-71
2022/04/25 11:04:23;;;;;;;13.70;5.55;;;;;;;;;;5000040;28;20030;-70
2022/04/25 11:07:08;;;;;;;8.68;5.75;;;;;;;;;;5003049;28;20096;-71
2022/04/25 11:09:40;;;;;;;8.30;5.50;;;;;;;;;;5017151;28;20053;-71
2022/04/25 11:12:06;;;;;;;8.02;5.47;;;;;;;;;;4999073;28;20030;-71
2022/04/25 11:14:31;;;;;;;9.05;4.78;;;;;;;;;;5011534;28;20088;-71
2022/04/25 11:17:07;;;;;;;7.97;4.90;;;;;;;;;;5011132;28;20029;-70
2022/04/25 11:19:51;;;;;;;8.38;5.05;;;;;;;;;;4993895;28;20269;-69
2022/04/25 11:22:34;;;;;;;7.00;5.20;;;;;;;;;;5010701;28;20037;-71
2022/04/25 11:25:18;;;;;;;10.20;4.38;;;;;;;;;;5009559;28;20032;-70
2022/04/25 11:27:59;;;;;;;7.20;4.40;;;;;;;;;;5007415;28;20057;-70
2022/04/25 11:30:25;;;;;;;8.60;4.15;;;;;;;;;;5013690;28;20505;-68
2022/04/25 11:32:51;;;;;;;6.72;4.68;;;;;;;;;;5016911;28;20030;-71
2022/04/25 11:35:22;;;;;;;6.03;3.88;;;;;;;;;;5018286;28;20047;-71
2022/04/25 11:37:48;;;;;;;5.88;4.35;;;;;;;;;;4990913;28;20762;-70
2022/04/25 11:40:14;;;;;;;5.82;4.25;;;;;;;;;;5017565;28;20022;-71
2022/04/25 11:42:40;;;;;;;4.32;3.30;;;;;;;;;;5008692;28;20496;-71
2022/04/25 11:45:06;;;;;;;6.43;3.25;;;;;;;;;;5012358;28;20029;-71
2022/04/25 11:47:31;;;;;;;5.22;3.53;;;;;;;;;;5020940;28;20021;-69
2022/04/25 11:50:01;;;;;;;6.32;3.25;;;;;;;;;;5008966;28;20108;-71
2022/04/25 11:52:27;;;;;;;;;;;;;;;;;;5012279;28;20060;-70
2022/04/25 11:54:53;;;;;;;4.53;3.00;;;;;;;;;;5017549;28;19956;-71
2022/04/25 11:57:18;;;;;;;4.18;2.65;;;;;;;;;;5016854;28;20097;-71
2022/04/25 11:59:43;;;;;;;2.28;1.50;;;;;;;;;;5009149;28;20018;-70
2022/04/25 12:02:08;;;;;;;5.00;2.90;;;;;;;;;;5009734;28;20025;-72
2022/04/25 12:04:34;;;;;;;4.40;2.90;;;;;;;;;;5007095;28;20018;-71
2022/04/25 12:06:59;;;;;;;9.18;2.65;;;;;;;;;;5014575;28;20276;-71
2022/04/25 12:17:45;;;;;;;3.28;2.40;;;;;;;;;;5011332;28;20040;-72
2022/04/25 12:20:12;;;;;;;3.65;2.55;;;;;;;;;;5016123;28;20498;-69
2022/04/25 12:22:38;;;;;;;3.85;2.75;;;;;;;;;;5008233;28;20108;-71
2022/04/25 12:25:14;;;;;;;3.95;2.50;;;;;;;;;;5014939;28;20044;-70
2022/04/25 12:27:41;;;;;;;3.53;2.53;;;;;;;;;;5013019;28;20022;-71
2022/04/25 12:30:07;;;;;;;5.47;2.55;;;;;;;;;;5017381;28;20025;-71
2022/04/25 12:32:32;;;;;;;4.13;2.30;;;;;;;;;;5020404;28;20191;-70
2022/04/25 12:34:57;;;;;;;3.30;2.25;;;;;;;;;;5010330;28;20029;-70
2022/04/25 12:37:23;;;;;;;4.80;2.42;;;;;;;;;;5017151;28;20017;-71
2022/04/25 12:40:01;;;;;;;10.93;2.70;;;;;;;;;;5011253;28;20040;-70
2022/04/25 12:42:45;;;;;;;4.38;2.85;;;;;;;;;;5017993;28;20767;-71
2022/04/25 12:45:10;;;;;;;12.45;3.10;;;;;;;;;;5012221;28;20126;-69
2022/04/25 12:47:36;;;;;;;4.97;2.77;;;;;;;;;;5016234;28;20061;-70
2022/04/25 12:50:03;;;;;;;4.00;2.70;;;;;;;;;;5011305;28;20268;-68
2022/04/25 12:52:43;;;;;;;3.85;2.35;;;;;;;;;;5015181;28;20270;-69
2022/04/25 12:55:08;;;;;;;6.40;2.53;;;;;;;;;;5009960;28;20029;-68
2022/04/25 12:57:34;;;;;;;5.82;2.30;;;;;;;;;;5011599;28;20052;-72
2022/04/25 13:00:00;;;;;;;3.28;2.00;;;;;;;;;;5011874;28;20104;-68
2022/04/25 13:02:35;;;;;;;2.60;1.90;;;;;;;;;;5012700;28;20183;-69
2022/04/25 13:05:03;;;;;;;6.35;2.88;;;;;;;;;;5011570;28;20017;-71
2022/04/25 13:07:32;;;;;;;4.47;2.40;;;;;;;;;;5008433;28;20021;-70
2022/04/25 13:09:58;;;;;;;3.55;2.13;;;;;;;;;;5013247;28;20149;-67
2022/04/25 13:12:24;;;;;;;6.82;2.35;;;;;;;;;;5006532;28;20025;-67
2022/04/25 13:14:50;;;;;;;3.85;2.38;;;;;;;;;;5008233;28;20026;-72
2022/04/25 13:17:15;;;;;;;4.85;2.50;;;;;;;;;;5019825;28;20478;-68
2022/04/25 13:19:40;;;;;;;3.17;2.13;;;;;;;;;;5010718;28;20037;-70
2022/04/25 13:22:06;;;;;;;3.42;2.15;;;;;;;;;;5014782;28;20395;-70
2022/04/25 13:24:35;;;;;;;4.20;2.53;;;;;;;;;;5015301;28;20108;-70
2022/04/25 13:27:01;;;;;;;10.85;2.47;;;;;;;;;;5009342;28;20057;-70
2022/04/25 13:29:26;;;;;;;4.53;2.40;;;;;;;;;;5006369;28;20415;-71
2022/04/25 13:31:51;;;;;;;4.97;2.50;;;;;;;;;;5004022;28;20034;-71
2022/04/25 13:34:16;;;;;;;3.37;2.23;;;;;;;;;;5005084;28;20268;-71
2022/04/25 13:36:41;;;;;;;4.47;2.70;;;;;;;;;;5007920;28;20294;-71
2022/04/25 13:39:07;;;;;;;3.37;2.20;;;;;;;;;;5003723;28;20279;-71
2022/04/25 13:41:32;;;;;;;3.60;2.60;;;;;;;;;;5002109;28;20740;-70
2022/04/25 13:43:57;;;;;;;6.78;2.90;;;;;;;;;;5006927;28;20284;-70
2022/04/25 13:46:22;;;;;;;4.38;2.53;;;;;;;;;;5013102;28;20121;-70
2022/04/25 13:48:48;;;;;;;4.77;3.10;;;;;;;;;;5013243;28;20018;-69
2022/04/25 13:51:14;;;;;;;3.53;2.47;;;;;;;;;;5009086;28;20860;-70
2022/04/25 13:53:39;;;;;;;4.07;2.55;;;;;;;;;;5015010;28;20308;-70
2022/04/25 13:56:05;;;;;;;8.52;2.70;;;;;;;;;;5009451;28;20397;-69
2022/04/25 13:58:31;;;;;;;5.43;3.10;;;;;;;;;;5007538;28;20478;-70
2022/04/25 14:00:56;;;;;;;5.80;2.30;;;;;;;;;;5009721;28;20034;-70
2022/04/25 14:03:21;;;;;;;5.22;2.80;;;;;;;;;;5009557;28;20125;-70
2022/04/25 14:05:48;;;;;;;6.87;4.60;;;;;;;;;;5017458;28;20029;-70
2022/04/25 14:08:14;;;;;;;16.50;7.30;;;;;;;;;;5009634;28;20276;-70
2022/04/25 14:10:41;;;;;;;17.42;10.45;;;;;;;;;;5011337;28;20497;-69
2022/04/25 14:13:07;;;;;;;18.33;9.88;;;;;;;;;;5006452;28;20025;-70
2022/04/25 14:15:33;;;;;;;14.43;9.40;;;;;;;;;;5013526;28;20021;-70
2022/04/25 14:17:58;;;;;;;16.52;10.73;;;;;;;;;;5008560;28;20100;-70
2022/04/25 14:20:23;;;;;;;17.77;11.57;;;;;;;;;;5007457;28;20017;-70
2022/04/25 14:22:49;;;;;;;19.95;11.15;;;;;;;;;;5008229;28;20613;-71
2022/04/25 14:25:14;;;;;;;20.63;12.80;;;;;;;;;;5008969;28;20374;-68
2022/04/25 14:27:39;;;;;;;18.38;12.90;;;;;;;;;;5005904;28;20037;-71
2022/04/25 14:30:05;;;;;;;25.52;14.88;;;;;;;;;;5011930;28;20033;-70
2022/04/25 14:32:31;;;;;;;21.92;14.82;;;;;;;;;;5010688;28;20104;-71
2022/04/25 14:34:56;;;;;;;26.95;15.23;;;;;;;;;;5012021;28;20164;-69
2022/04/25 14:37:21;;;;;;;19.57;14.37;;;;;;;;;;5009092;28;20025;-70
2022/04/25 14:39:46;;;;;;;24.03;13.87;;;;;;;;;;5015406;28;20292;-70
2022/04/25 14:42:11;;;;;;;25.57;14.47;;;;;;;;;;5005741;28;20682;-71
2022/04/25 14:44:37;;;;;;;27.07;13.97;;;;;;;;;;5006133;28;20285;-70
2022/04/25 14:47:03;;;;;;;26.98;13.68;;;;;;;;;;5017258;28;20291;-70
2022/04/25 14:54:56;;;;;;;25.45;12.60;;;;;;;;;;5014055;28;20470;-69
2022/04/25 14:57:23;;;;;;;18.58;11.15;;;;;;;;;;5012309;28;20030;-71
2022/04/25 14:59:48;;;;;;;19.58;11.23;;;;;;;;;;5012967;28;20071;-70
2022/04/25 15:02:13;;;;;;;17.17;11.07;;;;;;;;;;5016930;28;20112;-69
2022/04/25 15:04:38;;;;;;;23.20;12.00;;;;;;;;;;5016647;28;20288;-70
2022/04/25 15:07:03;;;;;;;17.50;11.83;;;;;;;;;;5011645;28;20289;-70
2022/04/25 15:09:29;;;;;;;18.88;11.35;;;;;;;;;;5011276;28;20312;-70
2022/04/25 15:11:54;;;;;;;18.20;11.15;;;;;;;;;;5012033;28;20048;-70
2022/04/25 15:14:20;;;;;;;16.23;10.23;;;;;;;;;;5009482;28;20021;-70